Time;durP1;ratioP1;P1;durP2;ratioP2;P2;SDS_P1;SDS_P2;PMS_P1;PMS_P2;Temp;Humidity;BMP_temperature;BMP_pressure;BME280_temperature;BME280_humidity;BME280_pressure;Samples;Min_cycle;Max_cycle;Signal;HPM_P1;HPM_P2
2022/10/26 00:01:35;;;;;;;10.03;9.03;;;14.20;99.90;;;;;;4994533;28;20462;-81
2022/10/26 00:04:03;;;;;;;7.00;6.43;;;14.20;99.90;;;;;;4993308;28;20474;-79
2022/10/26 00:06:30;;;;;;;7.60;7.03;;;14.20;99.90;;;;;;4994196;28;20492;-82
2022/10/26 00:08:58;;;;;;;8.30;7.43;;;14.20;99.90;;;;;;4994196;28;21090;-79
2022/10/26 00:11:25;;;;;;;8.27;7.07;;;14.20;99.90;;;;;;4993125;28;20469;-78
2022/10/26 00:13:52;;;;;;;7.60;7.00;;;14.20;99.90;;;;;;4993866;28;20544;-79
2022/10/26 00:16:22;;;;;;;9.63;8.00;;;14.20;99.90;;;;;;4990615;28;20560;-79
2022/10/26 00:18:50;;;;;;;7.78;6.97;;;14.20;99.90;;;;;;4994531;28;20540;-81
2022/10/26 00:21:18;;;;;;;8.70;7.90;;;14.20;99.90;;;;;;4985587;28;20222;-81
2022/10/26 00:23:53;;;;;;;7.95;7.15;;;14.10;99.90;;;;;;4993934;28;20478;-81
2022/10/26 00:26:22;;;;;;;7.53;6.82;;;14.20;99.90;;;;;;4992868;28;20230;-79
2022/10/26 00:28:49;;;;;;;7.97;7.00;;;14.10;99.90;;;;;;4993895;28;20230;-79
2022/10/26 00:31:16;;;;;;;7.97;7.17;;;14.10;99.90;;;;;;4999664;28;20461;-81
2022/10/26 00:33:43;;;;;;;7.57;6.87;;;14.10;99.90;;;;;;4993123;28;20584;-79
2022/10/26 00:36:12;;;;;;;10.40;8.77;;;14.10;99.90;;;;;;4994044;28;20477;-81
2022/10/26 00:38:44;;;;;;;11.10;7.50;;;14.10;99.90;;;;;;4993039;28;20470;-78
2022/10/26 00:41:14;;;;;;;8.90;7.53;;;14.10;99.90;;;;;;4993383;28;20497;-81
2022/10/26 00:43:46;;;;;;;8.17;6.83;;;14.10;99.90;;;;;;4992752;28;20465;-79
2022/10/26 00:46:38;;;;;;;9.20;8.00;;;14.10;99.90;;;;;;4977172;28;20549;-78
2022/10/26 00:49:11;;;;;;;11.60;8.60;;;14.10;99.90;;;;;;4993020;28;20477;-78
2022/10/26 00:51:42;;;;;;;11.13;7.30;;;14.00;99.90;;;;;;4993354;28;20463;-78
2022/10/26 00:54:13;;;;;;;9.10;8.30;;;14.00;99.90;;;;;;4993273;28;20466;-80
2022/10/26 00:56:41;;;;;;;8.10;7.30;;;14.00;99.90;;;;;;4993292;28;20477;-81
2022/10/26 00:59:12;;;;;;;9.17;7.77;;;14.00;99.90;;;;;;4992554;28;20536;-78
2022/10/26 01:01:42;;;;;;;9.10;7.50;;;13.90;99.90;;;;;;4993336;28;20465;-78
2022/10/26 01:04:12;;;;;;;8.60;7.63;;;13.90;99.90;;;;;;4992568;28;20478;-78
2022/10/26 01:06:41;;;;;;;12.07;8.43;;;13.90;99.90;;;;;;4993736;28;20841;-81
2022/10/26 01:09:09;;;;;;;8.87;7.63;;;13.90;99.90;;;;;;4993443;28;20470;-81
2022/10/26 01:11:37;;;;;;;11.40;8.00;;;13.90;99.90;;;;;;5004745;22;20462;-80
2022/10/26 01:14:07;;;;;;;8.90;7.67;;;13.90;99.90;;;;;;5037147;28;20547;-81
2022/10/26 01:16:51;;;;;;;9.67;7.90;;;13.80;99.90;;;;;;5035854;28;20472;-81
2022/10/26 01:19:53;;;;;;;7.95;6.43;;;13.80;99.90;;;;;;5036069;28;20996;-80
2022/10/26 01:22:24;;;;;;;9.15;7.28;;;13.80;99.90;;;;;;5043340;28;20320;-78
2022/10/26 01:25:02;;;;;;;8.77;7.27;;;13.80;99.90;;;;;;5055920;28;20228;-78
2022/10/26 01:27:34;;;;;;;9.77;7.28;;;13.80;99.90;;;;;;5055344;28;20479;-78
2022/10/26 01:30:33;;;;;;;10.05;7.72;;;13.80;99.90;;;;;;5057264;28;20662;-78
2022/10/26 01:33:21;;;;;;;8.25;7.45;;;13.80;99.90;;;;;;5055688;28;20240;-80
2022/10/26 01:35:55;;;;;;;8.40;7.63;;;13.80;99.90;;;;;;5056352;28;20228;-81
2022/10/26 01:38:32;;;;;;;8.70;6.73;;;13.80;99.90;;;;;;5055679;28;20237;-78
2022/10/26 01:41:04;;;;;;;9.55;8.65;;;13.80;99.90;;;;;;5055314;28;20473;-78
2022/10/26 01:43:39;;;;;;;8.67;7.90;;;13.70;99.90;;;;;;5055846;28;20240;-80
2022/10/26 01:46:09;;;;;;;8.15;7.13;;;13.70;99.90;;;;;;5055194;28;20474;-78
2022/10/26 01:48:38;;;;;;;8.37;7.57;;;13.70;99.90;;;;;;5055794;28;20223;-78
2022/10/26 01:51:07;;;;;;;11.27;8.65;;;13.70;99.90;;;;;;5054893;28;20520;-78
2022/10/26 01:53:34;;;;;;;8.38;7.50;;;13.70;99.90;;;;;;5055764;28;20274;-80
2022/10/26 01:56:02;;;;;;;7.47;6.80;;;13.70;99.90;;;;;;5054761;28;20231;-80
2022/10/26 01:58:49;;;;;;;8.40;7.60;;;13.70;99.90;;;;;;5055994;28;20463;-81
2022/10/26 02:01:37;;;;;;;8.50;6.75;;;13.70;99.90;;;;;;5055133;28;20474;-81
2022/10/26 02:04:11;;;;;;;8.13;7.38;;;13.70;99.90;;;;;;5037646;28;20671;-81
2022/10/26 02:06:46;;;;;;;7.93;7.23;;;13.70;99.90;;;;;;5055495;28;20224;-78
2022/10/26 02:09:24;;;;;;;7.80;6.90;;;13.70;99.90;;;;;;5053805;28;20483;-78
2022/10/26 02:11:56;;;;;;;9.98;7.63;;;13.70;99.90;;;;;;5055122;28;20486;-78
2022/10/26 02:14:30;;;;;;;8.90;7.40;;;13.70;99.90;;;;;;5054745;28;20303;-81
2022/10/26 02:17:06;;;;;;;9.47;7.10;;;13.70;99.90;;;;;;5055089;28;20481;-78
2022/10/26 02:19:38;;;;;;;8.30;7.37;;;13.70;99.90;;;;;;5054430;28;20478;-78
2022/10/26 02:22:12;;;;;;;7.17;6.47;;;13.70;99.90;;;;;;5055170;28;20533;-78
2022/10/26 02:24:41;;;;;;;9.15;7.78;;;13.70;99.90;;;;;;5043229;28;20498;-78
2022/10/26 02:27:13;;;;;;;11.35;7.28;;;13.70;99.90;;;;;;5054941;28;20225;-78
2022/10/26 02:29:43;;;;;;;7.00;6.33;;;13.60;99.90;;;;;;5054322;28;20248;-78
2022/10/26 02:32:13;;;;;;;10.20;8.00;;;13.70;99.90;;;;;;5054999;28;20860;-79
2022/10/26 02:34:44;;;;;;;8.80;7.80;;;13.60;99.90;;;;;;5054132;28;20506;-78
2022/10/26 02:37:13;;;;;;;8.70;7.28;;;13.60;99.90;;;;;;5056511;28;20502;-81
2022/10/26 02:39:41;;;;;;;11.80;8.60;;;13.70;99.90;;;;;;5057222;28;20224;-81
2022/10/26 02:42:10;;;;;;;8.30;7.57;;;13.60;99.90;;;;;;5055099;28;20514;-81
2022/10/26 02:44:44;;;;;;;10.37;8.33;;;13.60;99.90;;;;;;5054506;28;20539;-81
2022/10/26 02:47:13;;;;;;;9.27;8.23;;;13.60;99.90;;;;;;5054989;28;20543;-81
2022/10/26 02:49:41;;;;;;;12.43;7.37;;;13.60;99.90;;;;;;5054025;28;20908;-81
2022/10/26 02:52:15;;;;;;;8.70;7.82;;;13.70;99.90;;;;;;5055282;28;20479;-78
2022/10/26 02:54:52;;;;;;;8.40;7.60;;;13.70;99.90;;;;;;5053800;28;20243;-78
2022/10/26 02:57:24;;;;;;;8.73;6.70;;;13.70;99.90;;;;;;5054161;28;20232;-78
2022/10/26 02:59:52;;;;;;;7.20;6.50;;;13.70;99.90;;;;;;5054283;28;20226;-81
2022/10/26 03:02:22;;;;;;;9.03;7.13;;;13.70;99.90;;;;;;5055081;28;20467;-81
2022/10/26 03:04:51;;;;;;;7.85;7.05;;;13.70;99.90;;;;;;5054832;28;20486;-78
2022/10/26 03:07:22;;;;;;;8.20;7.07;;;13.80;99.90;;;;;;5055216;28;20247;-80
2022/10/26 03:09:49;;;;;;;15.07;8.03;;;13.80;99.90;;;;;;5045304;28;20567;-77
2022/10/26 03:12:16;;;;;;;8.33;7.23;;;13.70;99.90;;;;;;5054528;28;20832;-80
2022/10/26 03:14:46;;;;;;;7.50;6.80;;;13.70;99.90;;;;;;5053313;28;20524;-79
2022/10/26 03:17:13;;;;;;;8.27;7.10;;;13.70;99.90;;;;;;5042342;28;20837;-77
2022/10/26 03:19:41;;;;;;;7.20;6.50;;;13.70;99.90;;;;;;5053223;28;20956;-78
2022/10/26 03:22:08;;;;;;;8.63;6.97;;;13.70;99.90;;;;;;5054224;28;20251;-80
2022/10/26 03:24:35;;;;;;;7.60;7.00;;;13.70;99.90;;;;;;5054328;28;20483;-80
2022/10/26 03:27:02;;;;;;;8.00;7.30;;;13.70;99.90;;;;;;5053780;28;20467;-79
2022/10/26 03:29:29;;;;;;;7.03;6.43;;;13.70;99.90;;;;;;5053825;28;20240;-80
2022/10/26 03:31:57;;;;;;;6.67;6.03;;;13.70;99.90;;;;;;5053158;28;20510;-80
2022/10/26 03:34:24;;;;;;;8.98;6.75;;;13.70;99.90;;;;;;5052875;28;20471;-77
2022/10/26 03:36:53;;;;;;;9.03;6.67;;;13.70;99.90;;;;;;5053235;28;20229;-79
2022/10/26 03:39:20;;;;;;;7.28;6.53;;;13.60;99.90;;;;;;5053764;28;20475;-79
2022/10/26 03:41:47;;;;;;;8.10;6.77;;;13.60;99.90;;;;;;5053361;28;20239;-79
2022/10/26 03:44:14;;;;;;;8.50;6.15;;;13.60;99.90;;;;;;5054073;28;20481;-79
2022/10/26 03:46:41;;;;;;;11.20;6.97;;;13.60;99.90;;;;;;5053876;28;20287;-79
2022/10/26 03:49:08;;;;;;;7.90;6.38;;;13.60;99.90;;;;;;5053706;28;20491;-77
2022/10/26 03:51:35;;;;;;;6.88;6.28;;;13.60;99.90;;;;;;5055569;28;20315;-80
2022/10/26 03:54:05;;;;;;;9.18;6.57;;;13.50;99.90;;;;;;5055499;28;20636;-78
2022/10/26 03:56:32;;;;;;;5.83;5.33;;;13.50;99.90;;;;;;5051773;28;20237;-80
2022/10/26 03:59:00;;;;;;;9.40;6.47;;;13.50;99.90;;;;;;5052905;28;20472;-80
2022/10/26 04:01:27;;;;;;;8.30;6.93;;;13.50;99.90;;;;;;5053729;28;20247;-80
2022/10/26 04:03:53;;;;;;;10.50;7.15;;;13.50;99.90;;;;;;5053002;28;20471;-78
2022/10/26 04:06:20;;;;;;;7.18;6.47;;;13.50;99.90;;;;;;5053973;28;20323;-80
2022/10/26 04:08:47;;;;;;;6.90;6.20;;;13.40;99.90;;;;;;5053121;28;20236;-78
2022/10/26 04:11:16;;;;;;;8.60;6.95;;;13.50;99.90;;;;;;5052641;28;20295;-78
2022/10/26 04:13:44;;;;;;;9.10;7.43;;;13.50;99.90;;;;;;5051967;28;20282;-81
2022/10/26 04:16:11;;;;;;;8.80;6.17;;;13.40;99.90;;;;;;5052595;28;20275;-78
2022/10/26 04:18:38;;;;;;;8.07;6.20;;;13.40;99.90;;;;;;5053113;28;20559;-81
2022/10/26 04:21:05;;;;;;;8.23;7.43;;;13.40;99.90;;;;;;5051433;28;20540;-78
2022/10/26 04:23:33;;;;;;;7.78;7.07;;;13.40;99.90;;;;;;5052159;28;20828;-78
2022/10/26 04:26:00;;;;;;;7.80;7.10;;;13.40;99.90;;;;;;5052329;28;20248;-78
2022/10/26 04:28:28;;;;;;;7.22;6.53;;;13.40;99.90;;;;;;5052507;28;20690;-78
2022/10/26 04:30:55;;;;;;;6.50;5.90;;;13.30;99.90;;;;;;5052256;28;20239;-78
2022/10/26 04:33:22;;;;;;;6.30;5.70;;;13.30;99.90;;;;;;5053129;28;20235;-81
2022/10/26 04:35:50;;;;;;;6.53;5.93;;;13.30;99.90;;;;;;5054183;28;20224;-81
2022/10/26 04:38:17;;;;;;;7.47;6.32;;;13.30;99.90;;;;;;5053138;28;20229;-80
2022/10/26 04:40:44;;;;;;;7.55;6.03;;;13.30;99.90;;;;;;5053735;28;20234;-77
2022/10/26 04:43:11;;;;;;;6.50;5.85;;;13.30;99.90;;;;;;5052584;28;20232;-80
2022/10/26 04:45:40;;;;;;;7.53;6.28;;;13.30;99.90;;;;;;5053434;28;20228;-78
2022/10/26 04:48:09;;;;;;;8.65;6.80;;;13.30;99.90;;;;;;5057112;28;20251;-79
2022/10/26 04:50:38;;;;;;;8.93;6.00;;;13.30;99.90;;;;;;5057092;28;20232;-79
2022/10/26 04:53:05;;;;;;;7.40;6.70;;;13.30;99.90;;;;;;5055966;28;20467;-78
2022/10/26 04:55:36;;;;;;;7.13;5.82;;;13.20;99.90;;;;;;5047229;28;20653;-82
2022/10/26 04:58:03;;;;;;;9.73;6.40;;;13.20;99.90;;;;;;5056904;28;20282;-81
2022/10/26 05:00:31;;;;;;;7.00;6.30;;;13.20;99.90;;;;;;5057429;28;20543;-79
2022/10/26 05:03:04;;;;;;;6.65;6.05;;;13.20;99.90;;;;;;5045543;28;20293;-78
2022/10/26 05:05:32;;;;;;;9.63;7.15;;;13.20;99.90;;;;;;5058055;28;20232;-77
2022/10/26 05:08:02;;;;;;;6.00;5.40;;;13.20;99.90;;;;;;5055518;28;20312;-78
2022/10/26 05:10:29;;;;;;;8.10;6.40;;;13.20;99.90;;;;;;5055978;28;20259;-78
2022/10/26 05:12:58;;;;;;;14.60;10.55;;;13.20;99.90;;;;;;5055433;28;20221;-79
2022/10/26 05:15:26;;;;;;;9.18;8.15;;;13.20;99.90;;;;;;5058159;28;20243;-81
2022/10/26 05:17:58;;;;;;;13.02;9.98;;;13.20;99.90;;;;;;5058789;28;20234;-80
2022/10/26 05:20:29;;;;;;;9.63;8.73;;;13.20;99.90;;;;;;5057214;28;20282;-78
2022/10/26 05:23:01;;;;;;;9.45;8.55;;;13.20;99.90;;;;;;5055177;28;20279;-78
2022/10/26 05:25:30;;;;;;;9.73;6.85;;;13.20;99.90;;;;;;5059228;28;20228;-80
2022/10/26 05:27:59;;;;;;;9.25;6.78;;;13.20;99.90;;;;;;5056380;28;20622;-78
2022/10/26 05:30:27;;;;;;;9.15;8.25;;;13.20;99.90;;;;;;5058981;28;20313;-81
2022/10/26 05:32:55;;;;;;;9.35;7.15;;;13.20;99.90;;;;;;5057000;28;20220;-78
2022/10/26 05:35:22;;;;;;;8.25;7.50;;;13.20;99.90;;;;;;5054009;28;20263;-76
2022/10/26 05:37:51;;;;;;;7.70;7.00;;;13.10;99.90;;;;;;5055381;28;20296;-77
2022/10/26 05:40:19;;;;;;;10.65;7.05;;;13.10;99.90;;;;;;5055028;28;20220;-78
2022/10/26 05:42:46;;;;;;;10.15;7.25;;;13.10;99.90;;;;;;5061791;28;20228;-81
2022/10/26 05:45:13;;;;;;;8.02;6.63;;;13.10;99.90;;;;;;5062632;28;20627;-80
2022/10/26 05:47:41;;;;;;;6.57;5.97;;;13.10;99.90;;;;;;5064736;28;20632;-81
2022/10/26 05:50:09;;;;;;;8.02;7.20;;;13.10;99.90;;;;;;5062481;28;20224;-79
2022/10/26 05:52:39;;;;;;;7.63;6.93;;;13.10;99.90;;;;;;5057952;28;20286;-78
2022/10/26 05:55:10;;;;;;;8.95;6.40;;;13.10;99.90;;;;;;5059493;28;20566;-78
2022/10/26 05:57:38;;;;;;;8.55;7.88;;;13.10;99.90;;;;;;5063954;28;20229;-79
2022/10/26 06:00:09;;;;;;;9.80;6.20;;;13.10;99.90;;;;;;5057009;28;20248;-78
2022/10/26 06:02:46;;;;;;;9.03;8.00;;;13.10;99.90;;;;;;5069147;28;20466;-80
2022/10/26 06:05:20;;;;;;;9.25;8.45;;;13.10;99.90;;;;;;5057855;28;20885;-77
2022/10/26 06:07:47;;;;;;;8.35;7.55;;;13.10;99.90;;;;;;5058051;28;20217;-81
2022/10/26 06:10:17;;;;;;;7.47;6.53;;;13.10;99.90;;;;;;5055016;28;20253;-80
2022/10/26 06:12:45;;;;;;;8.13;7.15;;;13.10;99.90;;;;;;5009627;28;1298310;-80
2022/10/26 06:15:16;;;;;;;10.00;6.90;;;13.10;99.90;;;;;;5055701;28;20240;-77
2022/10/26 06:17:54;;;;;;;12.98;8.20;;;13.10;99.90;;;;;;5055299;28;20657;-77
2022/10/26 06:20:38;;;;;;;18.27;7.90;;;13.10;99.90;;;;;;5055655;28;20249;-78
2022/10/26 06:23:21;;;;;;;13.07;8.23;;;13.10;99.90;;;;;;5056600;28;20351;-80
2022/10/26 06:25:57;;;;;;;8.77;7.28;;;13.00;99.90;;;;;;5060169;28;20240;-80
2022/10/26 06:28:37;;;;;;;10.55;7.18;;;13.00;99.90;;;;;;5054648;28;20224;-78
2022/10/26 06:31:04;;;;;;;10.05;7.85;;;13.00;99.90;;;;;;5056134;28;20239;-79
2022/10/26 06:33:31;;;;;;;8.02;7.22;;;13.00;99.90;;;;;;5055151;28;20232;-77
2022/10/26 06:36:13;;;;;;;8.77;6.97;;;13.00;99.90;;;;;;5052055;28;20891;-78
2022/10/26 06:38:44;;;;;;;8.13;7.32;;;13.00;99.90;;;;;;5050161;28;20227;-77
2022/10/26 06:41:17;;;;;;;8.88;8.05;;;13.00;99.90;;;;;;5055618;28;20228;-81
2022/10/26 06:43:45;;;;;;;8.30;7.15;;;13.00;99.90;;;;;;5044446;28;20232;-79
2022/10/26 06:46:26;;;;;;;11.82;7.47;;;13.00;99.90;;;;;;5055069;28;20266;-79
2022/10/26 06:49:00;;;;;;;9.82;7.80;;;13.00;99.90;;;;;;5054351;28;20354;-80
2022/10/26 06:51:29;;;;;;;9.07;7.38;;;13.00;99.90;;;;;;5055354;28;20248;-81
2022/10/26 06:54:04;;;;;;;7.78;6.97;;;13.00;99.90;;;;;;5054291;28;20220;-80
2022/10/26 06:56:33;;;;;;;11.05;7.10;;;13.00;99.90;;;;;;5056988;28;20258;-80
2022/10/26 06:59:08;;;;;;;8.57;7.20;;;13.00;99.90;;;;;;5055191;28;20350;-80
2022/10/26 07:01:35;;;;;;;12.63;8.27;;;13.10;99.90;;;;;;5056418;28;20225;-77
2022/10/26 07:04:02;;;;;;;9.68;7.72;;;13.10;99.90;;;;;;5055221;28;20220;-79
2022/10/26 07:06:30;;;;;;;7.35;6.65;;;13.10;99.90;;;;;;5055825;28;20221;-81
2022/10/26 07:08:57;;;;;;;9.05;7.78;;;13.10;99.90;;;;;;5054789;28;20224;-81
2022/10/26 07:11:24;;;;;;;11.32;7.32;;;13.20;99.90;;;;;;5056472;28;20255;-81
2022/10/26 07:13:52;;;;;;;7.00;6.30;;;13.20;99.90;;;;;;5055902;28;20701;-79
2022/10/26 07:16:21;;;;;;;9.77;7.35;;;13.20;99.90;;;;;;5056149;28;20960;-80
2022/10/26 07:18:48;;;;;;;7.50;6.57;;;13.30;99.90;;;;;;5055888;28;20677;-80
2022/10/26 07:21:15;;;;;;;7.55;6.25;;;13.30;99.90;;;;;;5055967;28;20282;-80
2022/10/26 07:23:44;;;;;;;8.20;7.40;;;13.40;99.90;;;;;;5046223;28;20320;-80
2022/10/26 07:26:13;;;;;;;10.63;8.30;;;13.40;99.90;;;;;;5055621;28;20968;-80
2022/10/26 07:28:40;;;;;;;10.23;8.43;;;13.40;99.90;;;;;;5056430;28;20995;-80
2022/10/26 07:31:09;;;;;;;8.35;7.28;;;13.40;99.90;;;;;;5057799;28;20255;-77
2022/10/26 07:33:45;;;;;;;10.82;9.80;;;13.50;99.90;;;;;;5049827;28;20284;-78
2022/10/26 07:36:22;;;;;;;14.07;10.00;;;13.50;99.90;;;;;;5058837;28;20240;-80
2022/10/26 07:38:53;;;;;;;9.37;8.47;;;13.50;99.90;;;;;;5057746;28;20282;-80
2022/10/26 07:41:21;;;;;;;8.40;7.60;;;13.60;99.90;;;;;;5062513;28;20467;-79
2022/10/26 07:43:49;;;;;;;8.67;7.80;;;13.60;99.90;;;;;;5064744;28;20471;-80
2022/10/26 07:46:18;;;;;;;11.73;9.00;;;13.60;99.90;;;;;;5071512;28;20479;-81
2022/10/26 07:48:45;;;;;;;11.90;9.23;;;13.70;99.90;;;;;;5072048;28;20475;-80
2022/10/26 07:51:15;;;;;;;14.97;9.60;;;13.70;99.90;;;;;;5072622;28;20487;-77
2022/10/26 07:53:42;;;;;;;14.17;8.60;;;13.80;99.90;;;;;;5073193;28;20471;-77
2022/10/26 07:56:12;;;;;;;13.43;9.07;;;13.80;99.90;;;;;;5072845;28;20467;-81
2022/10/26 08:02:22;;;;;;;10.53;9.30;;;13.90;99.90;;;;;;4913613;29;20492;-80
2022/10/26 08:04:49;;;;;;;10.25;8.40;;;13.90;99.90;;;;;;5003985;28;20470;-81
2022/10/26 08:07:16;;;;;;;11.60;8.70;;;14.00;99.90;;;;;;5074223;28;20235;-80
2022/10/26 08:09:44;;;;;;;10.20;8.37;;;14.00;99.90;;;;;;5071857;28;20510;-76
2022/10/26 08:12:12;;;;;;;9.97;8.70;;;14.10;99.90;;;;;;5070191;28;20502;-78
2022/10/26 08:14:39;;;;;;;15.03;10.30;;;14.10;99.90;;;;;;5069068;28;20477;-78
2022/10/26 08:17:09;;;;;;;13.30;9.80;;;14.10;99.90;;;;;;5068875;28;20463;-78
2022/10/26 08:19:40;;;;;;;10.63;9.50;;;14.10;99.90;;;;;;5067671;28;20456;-81
2022/10/26 08:22:08;;;;;;;11.33;10.07;;;14.20;99.90;;;;;;5067789;28;20475;-82
2022/10/26 08:24:36;;;;;;;10.20;8.60;;;14.20;99.90;;;;;;5066761;28;20513;-80
2022/10/26 08:27:03;;;;;;;11.10;8.80;;;14.20;99.90;;;;;;5066973;28;20471;-81
2022/10/26 08:29:30;;;;;;;12.57;8.53;;;14.30;99.90;;;;;;5063408;28;20533;-77
2022/10/26 08:31:57;;;;;;;9.13;7.87;;;14.30;99.90;;;;;;5062361;28;20467;-78
2022/10/26 08:34:24;;;;;;;9.10;8.30;;;14.30;99.90;;;;;;5061008;28;20502;-78
2022/10/26 08:37:04;;;;;;;14.10;10.00;;;14.40;99.90;;;;;;5061506;28;20463;-78
2022/10/26 08:39:31;;;;;;;10.03;8.37;;;14.40;99.90;;;;;;5063868;28;20494;-81
2022/10/26 08:42:05;;;;;;;16.20;8.87;;;14.40;99.90;;;;;;5062708;28;20521;-81
2022/10/26 08:44:39;;;;;;;8.70;7.37;;;14.50;99.90;;;;;;5061082;28;20523;-81
2022/10/26 08:47:13;;;;;;;10.13;8.00;;;14.60;99.90;;;;;;5060951;28;20454;-81
2022/10/26 08:49:45;;;;;;;9.00;8.10;;;14.60;99.90;;;;;;5055858;28;20818;-77
2022/10/26 08:52:18;;;;;;;10.30;8.30;;;14.70;99.90;;;;;;5035790;28;20964;-78
2022/10/26 08:54:51;;;;;;;9.10;7.43;;;14.70;99.90;;;;;;5054173;28;20463;-78
2022/10/26 08:57:22;;;;;;;11.50;7.50;;;14.70;99.90;;;;;;5053948;28;20551;-78
2022/10/26 08:59:54;;;;;;;8.03;7.33;;;14.80;99.90;;;;;;5052835;28;20459;-78
2022/10/26 09:02:21;;;;;;;17.97;9.00;;;14.90;99.90;;;;;;5053229;28;20471;-79
2022/10/26 09:04:48;;;;;;;12.20;9.80;;;14.90;99.90;;;;;;5052673;28;20542;-79
2022/10/26 09:07:32;;;;;;;10.00;8.73;;;15.00;99.90;;;;;;5053930;28;20467;-81
2022/10/26 09:10:08;;;;;;;10.27;9.23;;;15.00;99.90;;;;;;5051961;28;20466;-80
2022/10/26 09:12:46;;;;;;;13.23;9.17;;;15.10;99.90;;;;;;5052794;28;20545;-80
2022/10/26 09:15:23;;;;;;;9.97;8.97;;;15.10;99.90;;;;;;5052861;28;20490;-82
2022/10/26 09:17:58;;;;;;;13.67;7.60;;;15.20;99.90;;;;;;5052519;28;20649;-80
2022/10/26 09:20:43;;;;;;;9.90;8.43;;;15.20;99.90;;;;;;5053172;28;20501;-82
2022/10/26 09:23:21;;;;;;;6.40;5.80;;;15.30;99.90;;;;;;5052522;28;20539;-78
2022/10/26 09:25:54;;;;;;;6.90;6.30;;;15.30;99.90;;;;;;5051889;28;20487;-79
2022/10/26 09:28:21;;;;;;;7.57;6.60;;;15.40;99.90;;;;;;5052529;28;20505;-81
2022/10/26 09:30:49;;;;;;;7.70;7.00;;;15.40;99.90;;;;;;5051813;28;20822;-77
2022/10/26 09:33:18;;;;;;;8.13;7.07;;;15.50;99.90;;;;;;5054101;28;20537;-78
2022/10/26 09:35:50;;;;;;;7.43;6.73;;;15.60;99.90;;;;;;5055543;28;20475;-77
2022/10/26 09:38:24;;;;;;;7.37;6.60;;;15.60;99.90;;;;;;5055299;28;20463;-77
2022/10/26 09:40:56;;;;;;;14.00;9.10;;;15.60;99.90;;;;;;5056086;28;20585;-78
2022/10/26 09:43:28;;;;;;;10.77;7.77;;;15.70;99.90;;;;;;5055365;28;20904;-78
2022/10/26 09:45:56;;;;;;;11.33;8.17;;;15.70;99.90;;;;;;5056880;28;20478;-81
2022/10/26 09:48:29;;;;;;;8.00;7.17;;;15.70;99.90;;;;;;5055181;28;20579;-81
2022/10/26 09:50:59;;;;;;;6.87;6.13;;;15.70;99.90;;;;;;5056008;28;20778;-81
2022/10/26 09:53:27;;;;;;;9.20;7.40;;;15.80;99.90;;;;;;5055571;28;20571;-81
2022/10/26 09:56:01;;;;;;;8.63;6.97;;;15.80;99.90;;;;;;5055981;28;20459;-78
2022/10/26 09:58:31;;;;;;;8.13;7.30;;;15.80;99.90;;;;;;5054984;28;20465;-79
2022/10/26 10:00:58;;;;;;;8.00;6.57;;;15.90;99.90;;;;;;5055785;28;20540;-81
2022/10/26 10:03:29;;;;;;;7.13;6.53;;;16.00;99.90;;;;;;5055127;28;20602;-81
2022/10/26 10:06:16;;;;;;;6.87;6.23;;;16.00;99.90;;;;;;5060418;28;20514;-81
2022/10/26 10:08:45;;;;;;;6.70;5.60;;;16.10;99.90;;;;;;5055991;28;20536;-81
2022/10/26 10:11:13;;;;;;;8.97;6.20;;;16.20;99.90;;;;;;5055185;28;20527;-81
2022/10/26 10:13:42;;;;;;;8.97;7.10;;;16.30;99.90;;;;;;5055217;28;20473;-81
2022/10/26 10:16:13;;;;;;;7.03;6.33;;;16.30;99.90;;;;;;5054663;28;20468;-78
2022/10/26 10:18:42;;;;;;;6.77;6.00;;;16.40;99.90;;;;;;5055178;28;20495;-78
2022/10/26 10:21:10;;;;;;;5.93;5.43;;;16.40;99.90;;;;;;5054595;28;20787;-78
2022/10/26 10:23:50;;;;;;;7.63;6.20;;;16.40;99.90;;;;;;5053043;28;20926;-78
2022/10/26 10:26:20;;;;;;;9.37;6.17;;;16.50;99.90;;;;;;5054372;28;20943;-81
2022/10/26 10:28:57;;;;;;;6.90;6.13;;;16.50;99.90;;;;;;5055044;28;20467;-81
2022/10/26 10:31:29;;;;;;;7.33;6.23;;;16.50;99.90;;;;;;5054113;28;20582;-81
2022/10/26 10:33:56;;;;;;;6.53;5.90;;;16.60;99.90;;;;;;5054558;28;20478;-81
2022/10/26 10:36:26;;;;;;;9.63;5.73;;;16.60;99.90;;;;;;5053713;28;20496;-80
2022/10/26 10:38:54;;;;;;;9.93;5.57;;;16.70;99.90;;;;;;5054513;28;20968;-81
2022/10/26 10:41:26;;;;;;;5.70;4.40;;;16.60;99.90;;;;;;5054355;28;20541;-81
2022/10/26 10:44:07;;;;;;;5.40;4.30;;;16.70;99.90;;;;;;5052883;28;20576;-81
2022/10/26 10:46:36;;;;;;;4.13;3.80;;;16.70;99.90;;;;;;5054270;28;20854;-81
2022/10/26 10:49:06;;;;;;;4.93;3.60;;;16.80;99.90;;;;;;5054775;28;20945;-81
2022/10/26 10:51:38;;;;;;;8.60;4.07;;;16.90;99.90;;;;;;5054114;28;20940;-78
2022/10/26 10:54:25;;;;;;;6.20;5.57;;;16.90;99.90;;;;;;5053632;28;20569;-81
2022/10/26 10:56:54;;;;;;;6.97;5.07;;;17.00;99.90;;;;;;5054523;28;20466;-81
2022/10/26 10:59:53;;;;;;;6.43;4.83;;;17.00;99.90;;;;;;5054337;28;20956;-81
2022/10/26 11:02:50;;;;;;;8.90;4.73;;;17.10;99.90;;;;;;5053884;28;20970;-81
2022/10/26 11:05:24;;;;;;;4.77;4.03;;;17.10;99.90;;;;;;5047830;28;20468;-81
2022/10/26 11:07:55;;;;;;;5.33;4.83;;;17.20;99.90;;;;;;5054418;28;20462;-81
2022/10/26 11:10:29;;;;;;;6.07;5.00;;;17.20;99.90;;;;;;5053630;28;20458;-81
2022/10/26 11:12:59;;;;;;;4.27;3.97;;;17.20;99.90;;;;;;5054131;28;20517;-81
2022/10/26 11:15:30;;;;;;;7.90;5.77;;;17.20;99.90;;;;;;5053668;28;20467;-81
2022/10/26 11:18:06;;;;;;;5.40;3.50;;;17.30;99.90;;;;;;5053906;28;20478;-78
2022/10/26 11:20:35;;;;;;;6.30;4.93;;;17.30;99.90;;;;;;5053861;28;20997;-81
2022/10/26 11:23:08;;;;;;;6.20;4.00;;;17.30;99.90;;;;;;5053583;28;20526;-79
2022/10/26 11:25:44;;;;;;;4.27;3.87;;;17.30;99.90;;;;;;5053616;28;20563;-81
2022/10/26 11:28:19;;;;;;;3.60;3.40;;;17.40;99.90;;;;;;5052690;28;20474;-79
2022/10/26 11:30:52;;;;;;;3.93;3.60;;;17.40;99.90;;;;;;5053903;28;20854;-78
2022/10/26 11:33:23;;;;;;;9.10;4.63;;;17.50;99.90;;;;;;5053061;28;20565;-81
2022/10/26 11:35:58;;;;;;;4.93;4.37;;;17.40;99.90;;;;;;5053615;28;20549;-78
2022/10/26 11:38:34;;;;;;;4.20;3.27;;;17.50;99.90;;;;;;5053225;28;20572;-78
2022/10/26 11:41:08;;;;;;;3.90;3.50;;;17.50;99.90;;;;;;5052804;28;20541;-78
2022/10/26 11:43:40;;;;;;;7.20;4.40;;;17.50;99.90;;;;;;5043991;28;20808;-81
2022/10/26 11:46:11;;;;;;;5.33;4.10;;;17.50;99.90;;;;;;5053338;28;20470;-81
2022/10/26 11:48:44;;;;;;;17.57;4.70;;;17.50;99.90;;;;;;5052431;28;20486;-81
2022/10/26 11:51:18;;;;;;;12.50;5.00;;;17.60;99.90;;;;;;5053240;28;20484;-81
2022/10/26 11:53:47;;;;;;;9.90;3.53;;;17.60;99.90;;;;;;5053319;28;20546;-78
2022/10/26 11:56:24;;;;;;;6.40;3.93;;;17.60;99.90;;;;;;5051573;28;20492;-79
2022/10/26 11:58:52;;;;;;;19.07;5.20;;;17.60;99.90;;;;;;5052651;28;20861;-81
2022/10/26 12:01:20;;;;;;;6.00;4.13;;;17.60;99.90;;;;;;5053275;28;20478;-82
2022/10/26 12:04:00;;;;;;;4.40;3.80;;;17.70;99.90;;;;;;5052442;28;20471;-81
2022/10/26 12:06:32;;;;;;;7.47;3.43;;;17.70;99.90;;;;;;5052263;28;20568;-79
2022/10/26 12:09:05;;;;;;;2.87;2.67;;;17.70;99.90;;;;;;5053162;28;20798;-81
2022/10/26 12:11:40;;;;;;;8.43;3.97;;;17.80;99.90;;;;;;5051742;28;20474;-81
2022/10/26 12:14:19;;;;;;;6.10;3.50;;;17.80;99.90;;;;;;5053916;28;20459;-80
2022/10/26 12:16:54;;;;;;;9.70;3.57;;;17.80;99.90;;;;;;5052532;28;20470;-78
2022/10/26 12:19:28;;;;;;;4.30;3.30;;;17.70;99.90;;;;;;5052582;28;20508;-78
2022/10/26 12:21:55;;;;;;;3.50;3.17;;;17.80;99.90;;;;;;5052211;28;20812;-81
2022/10/26 12:24:28;;;;;;;8.20;3.00;;;17.90;99.90;;;;;;5052912;28;20471;-81
2022/10/26 12:26:58;;;;;;;3.83;3.00;;;17.90;99.90;;;;;;5051982;28;20469;-81
2022/10/26 12:29:37;;;;;;;25.53;3.30;;;17.90;99.90;;;;;;5052447;28;20533;-81
2022/10/26 12:32:20;;;;;;;7.60;3.87;;;17.90;99.90;;;;;;5052355;28;20504;-81
2022/10/26 12:35:03;;;;;;;3.47;3.10;;;17.90;99.90;;;;;;5051819;28;20478;-81
2022/10/26 12:37:37;;;;;;;6.07;3.30;;;17.90;99.90;;;;;;5052163;28;20470;-78
2022/10/26 12:40:39;;;;;;;3.17;2.70;;;18.00;99.90;;;;;;5051943;28;20457;-78
2022/10/26 12:43:37;;;;;;;4.47;4.00;;;18.00;99.90;;;;;;5051809;28;20491;-79
2022/10/26 12:46:41;;;;;;;3.20;2.90;;;18.10;99.90;;;;;;5032799;28;20466;-78
2022/10/26 12:49:58;;;;;;;4.50;3.17;;;18.10;99.90;;;;;;5032758;28;20533;-81
2022/10/26 12:52:54;;;;;;;3.23;2.93;;;18.10;99.90;;;;;;5032447;28;20472;-81
2022/10/26 12:55:54;;;;;;;4.23;3.20;;;18.10;99.90;;;;;;5033593;28;20558;-81
2022/10/26 12:58:38;;;;;;;7.83;2.73;;;18.20;99.90;;;;;;5034510;28;20787;-82
2022/10/26 13:01:33;;;;;;;5.70;3.03;;;18.20;99.90;;;;;;5033384;28;20547;-80
2022/10/26 13:04:25;;;;;;;3.67;2.90;;;18.20;99.90;;;;;;5033165;28;20468;-80
2022/10/26 13:07:18;;;;;;;3.10;2.80;;;18.20;99.90;;;;;;5033383;28;20507;-78
2022/10/26 13:09:46;;;;;;;5.50;2.90;;;18.20;99.90;;;;;;5036412;28;20868;-77
2022/10/26 13:12:14;;;;;;;2.80;2.60;;;18.20;99.90;;;;;;5035738;28;20461;-79
2022/10/26 13:14:53;;;;;;;4.90;4.03;;;18.30;99.90;;;;;;5036364;28;20468;-77